Time;durP1;ratioP1;P1;durP2;ratioP2;P2;SDS_P1;SDS_P2;PMS_P1;PMS_P2;Temp;Humidity;BMP_temperature;BMP_pressure;BME280_temperature;BME280_humidity;BME280_pressure;Samples;Min_cycle;Max_cycle;Signal;HPM_P1;HPM_P2
2021/12/06 00:00:54;;;;;;;2.03;1.93;;;3.20;84.10;2.20;97488.00;;;;5135168;28;20199;-70
2021/12/06 00:03:28;;;;;;;1.63;1.53;;;3.10;83.90;2.20;97495.00;;;;5116968;28;20259;-71
2021/12/06 00:05:57;;;;;;;1.90;1.77;;;3.10;84.00;2.20;97491.00;;;;5134993;28;20220;-70
2021/12/06 00:08:24;;;;;;;1.83;1.73;;;3.10;84.10;2.10;97482.00;;;;5117044;28;20339;-70
2021/12/06 00:10:51;;;;;;;3.60;2.67;;;3.00;83.70;2.00;97489.00;;;;5117014;28;20261;-70
2021/12/06 00:13:22;;;;;;;0.90;0.90;;;3.00;84.10;2.00;97487.00;;;;5116830;28;20220;-70
2021/12/06 00:15:50;;;;;;;1.70;1.60;;;2.90;84.40;1.90;97491.00;;;;5134854;28;20220;-70
2021/12/06 00:18:18;;;;;;;2.87;1.60;;;2.90;84.40;1.90;97496.00;;;;5134800;28;20691;-71
2021/12/06 00:20:45;;;;;;;1.87;1.77;;;2.80;84.60;2.00;97498.00;;;;5134708;28;20197;-71
2021/12/06 00:23:12;;;;;;;1.00;1.00;;;2.90;84.80;2.00;97502.00;;;;5134757;28;20648;-70
2021/12/06 00:25:39;;;;;;;1.53;1.43;;;2.90;84.80;2.00;97505.00;;;;5134674;28;20189;-70
2021/12/06 00:28:06;;;;;;;2.87;1.40;;;2.90;84.50;2.00;97502.00;;;;5134680;28;20296;-70
2021/12/06 00:30:32;;;;;;;1.40;1.30;;;2.90;84.40;2.10;97495.00;;;;5134627;28;20224;-71
2021/12/06 00:33:01;;;;;;;2.17;2.07;;;2.90;84.70;2.10;97498.00;;;;5134595;28;20287;-71
2021/12/06 00:35:29;;;;;;;1.43;1.43;;;3.00;84.60;2.20;97513.00;;;;5134663;28;20209;-70
2021/12/06 00:37:58;;;;;;;1.27;1.23;;;3.00;84.70;2.20;97517.00;;;;5134499;28;20208;-71
2021/12/06 00:40:30;;;;;;;1.37;1.13;;;3.00;84.40;2.20;97517.00;;;;5134298;28;20246;-70
2021/12/06 00:42:56;;;;;;;1.47;1.37;;;3.10;84.60;2.20;97518.00;;;;5134563;28;20215;-70
2021/12/06 00:45:24;;;;;;;1.63;1.53;;;3.00;84.20;2.00;97519.00;;;;5134369;28;20192;-70
2021/12/06 00:47:51;;;;;;;2.10;1.33;;;3.00;83.90;2.00;97504.00;;;;5134218;28;20303;-70
2021/12/06 00:50:20;;;;;;;1.07;1.07;;;3.00;84.30;2.00;97518.00;;;;5116609;28;20563;-70
2021/12/06 00:52:48;;;;;;;1.10;1.10;;;2.90;84.50;1.90;97525.00;;;;5117206;28;20325;-70
2021/12/06 00:55:18;;;;;;;1.77;1.67;;;2.80;84.10;2.00;97522.00;;;;5138189;28;20562;-70
2021/12/06 00:57:45;;;;;;;1.53;1.43;;;2.90;84.70;2.00;97521.00;;;;5138031;28;20238;-70
2021/12/06 01:00:16;;;;;;;1.70;1.60;;;2.90;84.70;2.00;97524.00;;;;5137938;28;20340;-72
2021/12/06 01:02:44;;;;;;;1.90;1.80;;;2.90;84.50;2.00;97500.00;;;;5137892;28;20282;-70
2021/12/06 01:05:11;;;;;;;1.60;1.50;;;2.90;84.70;2.00;97524.00;;;;5137815;28;20267;-70
2021/12/06 01:07:41;;;;;;;1.40;1.40;;;2.90;84.70;1.90;97523.00;;;;5119643;28;20298;-70
2021/12/06 01:10:11;;;;;;;1.83;1.73;;;2.90;84.60;2.00;97542.00;;;;5137690;28;20220;-70
2021/12/06 01:12:38;;;;;;;1.47;1.43;;;2.90;84.80;2.10;97536.00;;;;5137719;28;20283;-70
2021/12/06 01:15:07;;;;;;;1.30;1.20;;;3.00;85.20;2.00;97538.00;;;;5137697;28;20206;-70
2021/12/06 01:17:33;;;;;;;1.47;1.37;;;2.90;84.20;2.10;97540.00;;;;5137722;28;20296;-70
2021/12/06 01:20:00;;;;;;;1.90;1.80;;;2.90;84.60;1.90;97545.00;;;;5119676;28;20212;-70
2021/12/06 01:22:32;;;;;;;1.60;1.50;;;2.80;84.80;2.00;97552.00;;;;5137488;28;20278;-70
2021/12/06 01:25:03;;;;;;;1.67;1.57;;;2.80;84.40;2.10;97567.00;;;;5119554;28;20276;-70
2021/12/06 01:30:31;;;;;;;2.23;1.73;;;3.00;84.60;2.20;97540.00;;;;5134532;28;20218;-70
2021/12/06 01:41:22;;;;;;;1.70;1.60;;;3.00;84.20;2.10;97577.00;;;;5137195;28;20330;-70
2021/12/06 01:44:13;;;;;;;1.20;1.20;;;3.00;84.20;2.20;97584.00;;;;5137313;28;20298;-70
2021/12/06 01:46:49;;;;;;;1.80;1.63;;;3.00;84.30;2.10;97596.00;;;;5137064;28;20785;-70
2021/12/06 01:49:18;;;;;;;2.50;2.30;;;3.10;84.00;2.10;97600.00;;;;5137164;28;20205;-70
2021/12/06 01:51:47;;;;;;;1.77;1.67;;;3.00;84.00;2.10;97595.00;;;;5137066;28;20212;-70
2021/12/06 01:54:15;;;;;;;2.10;1.67;;;3.00;84.20;2.10;97606.00;;;;5136873;28;20223;-71
2021/12/06 01:56:43;;;;;;;1.80;1.67;;;3.00;84.10;2.10;97593.00;;;;5136977;28;20293;-70
2021/12/06 01:59:12;;;;;;;1.57;1.47;;;3.00;84.00;2.00;97583.00;;;;5136818;28;20538;-70
2021/12/06 02:01:40;;;;;;;1.33;1.30;;;3.00;84.40;2.10;97588.00;;;;5118929;28;20265;-70
2021/12/06 02:04:09;;;;;;;0.83;0.83;;;3.00;84.40;2.10;97582.00;;;;5136792;27;20206;-70
2021/12/06 02:06:38;;;;;;;2.33;2.23;;;3.00;84.40;2.10;97591.00;;;;5118579;28;20323;-70
2021/12/06 02:09:08;;;;;;;2.13;1.93;;;3.00;84.20;2.00;97594.00;;;;5118785;28;20357;-70
2021/12/06 02:11:39;;;;;;;1.50;1.40;;;3.00;84.40;2.10;97591.00;;;;5136622;28;20227;-70
2021/12/06 02:14:24;;;;;;;1.40;1.30;;;2.90;85.30;2.20;97602.00;;;;5136720;28;20647;-70
2021/12/06 02:17:06;;;;;;;1.47;1.20;;;3.00;84.50;2.10;97604.00;;;;5136678;28;20221;-70
2021/12/06 02:19:40;;;;;;;1.60;1.50;;;3.00;84.20;2.00;97603.00;;;;5136741;28;20248;-70
2021/12/06 02:22:13;;;;;;;1.87;1.77;;;2.90;83.80;2.10;97607.00;;;;5136677;28;20730;-70
2021/12/06 02:24:40;;;;;;;1.90;1.80;;;2.90;83.80;2.00;97619.00;;;;5136666;28;20220;-70
2021/12/06 02:27:12;;;;;;;0.80;0.80;;;2.90;83.70;2.00;97615.00;;;;5118303;28;20667;-71
2021/12/06 02:29:40;;;;;;;1.80;1.70;;;2.90;83.90;2.10;97623.00;;;;5136509;28;20205;-70
2021/12/06 02:32:10;;;;;;;1.37;1.27;;;2.90;84.80;1.90;97624.00;;;;5136503;28;20301;-70
2021/12/06 02:34:38;;;;;;;1.00;1.00;;;2.90;84.00;2.00;97636.00;;;;5118595;28;20291;-71
2021/12/06 02:37:06;;;;;;;2.27;2.13;;;2.90;84.40;2.00;97628.00;;;;5136269;28;20234;-70
2021/12/06 02:39:36;;;;;;;2.03;1.93;;;2.90;84.40;2.10;97634.00;;;;5136311;28;20196;-70
2021/12/06 02:42:05;;;;;;;1.30;1.30;;;3.00;84.50;2.10;97631.00;;;;5136161;28;20267;-70
2021/12/06 02:44:34;;;;;;;1.87;1.77;;;2.90;84.70;2.00;97633.00;;;;5136356;28;20647;-71
2021/12/06 02:47:01;;;;;;;1.87;1.53;;;2.90;84.40;2.10;97629.00;;;;5136221;28;20749;-70
2021/12/06 02:49:30;;;;;;;1.47;1.37;;;2.90;84.70;2.10;97628.00;;;;5136083;28;20230;-70
2021/12/06 02:52:00;;;;;;;1.83;1.73;;;2.90;84.60;2.10;97627.00;;;;5118080;28;20225;-70
2021/12/06 02:54:29;;;;;;;2.10;2.00;;;3.00;84.50;2.20;97636.00;;;;5136019;28;20255;-70
2021/12/06 02:57:18;;;;;;;0.90;0.90;;;3.00;84.60;2.10;97634.00;;;;5136153;28;20200;-70
2021/12/06 02:59:46;;;;;;;2.40;1.97;;;3.00;84.30;1.90;97636.00;;;;5135803;28;20587;-70
2021/12/06 03:02:17;;;;;;;4.97;1.50;;;2.90;84.20;2.00;97651.00;;;;5135919;28;20195;-70
2021/12/06 03:04:45;;;;;;;1.67;1.57;;;2.90;84.40;2.00;97646.00;;;;5136123;28;20258;-70
2021/12/06 03:07:12;;;;;;;2.17;2.03;;;2.90;84.40;2.00;97642.00;;;;5117840;28;20243;-70
2021/12/06 03:09:40;;;;;;;1.17;1.17;;;2.90;84.60;2.00;97644.00;;;;5135878;28;20212;-70
2021/12/06 03:12:12;;;;;;;1.87;1.77;;;2.90;84.80;2.00;97647.00;;;;5135742;28;20224;-70
2021/12/06 03:14:43;;;;;;;1.70;1.60;;;2.90;85.00;2.00;97642.00;;;;5117771;28;20229;-70
2021/12/06 03:17:14;;;;;;;1.80;1.70;;;2.80;84.60;2.00;97653.00;;;;5135148;28;20256;-70
2021/12/06 03:19:41;;;;;;;1.73;1.63;;;2.90;84.80;1.90;97656.00;;;;5135636;28;20224;-71
2021/12/06 03:22:12;;;;;;;1.93;1.80;;;2.90;84.80;2.00;97647.00;;;;5135593;28;20696;-70
2021/12/06 03:24:41;;;;;;;2.17;2.07;;;2.90;85.00;2.10;97651.00;;;;5135561;28;20194;-70
2021/12/06 03:27:09;;;;;;;2.53;2.33;;;2.90;85.10;2.10;97655.00;;;;5135483;28;20276;-71
2021/12/06 03:29:37;;;;;;;2.43;2.23;;;3.00;85.00;2.10;97667.00;;;;5135571;28;20695;-71
2021/12/06 03:32:05;;;;;;;2.40;2.30;;;3.00;85.30;2.20;97668.00;;;;5135353;28;20240;-70
2021/12/06 03:34:33;;;;;;;1.83;1.70;;;3.00;85.30;2.10;97671.00;;;;5135398;28;20231;-70
2021/12/06 03:37:02;;;;;;;1.27;1.27;;;3.00;84.80;2.10;97668.00;;;;5135291;28;20598;-70
2021/12/06 03:39:36;;;;;;;1.77;1.67;;;3.00;84.70;2.10;97676.00;;;;5135446;28;20288;-70
2021/12/06 03:42:07;;;;;;;1.10;1.10;;;3.00;84.80;2.10;97682.00;;;;5135308;28;20201;-70
2021/12/06 03:44:36;;;;;;;1.63;1.53;;;2.90;84.40;2.00;97692.00;;;;5117241;28;20260;-70
2021/12/06 03:47:07;;;;;;;1.63;1.53;;;2.90;84.40;2.00;97682.00;;;;5135183;28;20215;-70
2021/12/06 03:49:34;;;;;;;2.50;2.33;;;2.80;84.60;2.00;97695.00;;;;5135251;28;20280;-70
2021/12/06 03:52:02;;;;;;;2.17;1.67;;;2.90;85.00;2.10;97691.00;;;;5117183;28;20302;-70
2021/12/06 03:54:29;;;;;;;0.97;0.97;;;2.90;85.10;2.10;97689.00;;;;5135211;28;20296;-70
2021/12/06 03:56:57;;;;;;;2.03;1.93;;;3.00;84.90;2.10;97694.00;;;;5135122;28;20254;-70
2021/12/06 03:59:24;;;;;;;1.20;1.03;;;3.00;84.70;2.00;97698.00;;;;5135068;28;20211;-70
2021/12/06 04:01:53;;;;;;;1.90;1.70;;;3.00;84.50;2.10;97690.00;;;;5116956;28;20631;-70
2021/12/06 04:04:22;;;;;;;2.40;2.20;;;3.00;84.70;2.20;97692.00;;;;5135032;28;20244;-70
2021/12/06 04:06:50;;;;;;;2.17;2.07;;;3.00;84.80;2.10;97697.00;;;;5134818;28;20508;-70
2021/12/06 04:09:16;;;;;;;1.73;1.63;;;3.00;84.70;2.10;97712.00;;;;5116749;28;20632;-71
2021/12/06 04:11:44;;;;;;;2.27;2.07;;;3.00;85.40;2.10;97715.00;;;;5134939;28;20629;-70
2021/12/06 04:14:12;;;;;;;2.63;2.50;;;3.00;84.70;2.10;97714.00;;;;5116727;28;20223;-70
2021/12/06 04:16:40;;;;;;;9.93;2.73;;;3.00;84.90;2.10;97712.00;;;;5134803;28;20200;-70
2021/12/06 04:19:09;;;;;;;6.03;2.93;;;3.00;85.00;2.20;97722.00;;;;5134818;28;20611;-70
2021/12/06 04:21:37;;;;;;;1.00;1.00;;;3.00;85.20;2.10;97723.00;;;;5134715;28;20290;-71
2021/12/06 04:24:04;;;;;;;1.70;1.60;;;3.00;85.20;2.20;97720.00;;;;5134619;28;20190;-70
2021/12/06 04:26:31;;;;;;;1.83;1.73;;;3.10;85.00;2.20;97728.00;;;;5134446;27;20224;-71
2021/12/06 04:28:59;;;;;;;1.60;1.50;;;3.00;84.90;2.20;97728.00;;;;5137424;28;20265;-71
2021/12/06 04:31:27;;;;;;;2.93;2.73;;;3.00;85.00;2.20;97737.00;;;;5138501;28;20622;-71
2021/12/06 04:33:54;;;;;;;4.23;1.70;;;3.10;85.40;2.20;97722.00;;;;5138328;28;20274;-70
2021/12/06 04:36:25;;;;;;;1.40;1.40;;;3.10;85.40;2.20;97719.00;;;;5138135;28;20689;-70
2021/12/06 04:38:51;;;;;;;1.03;1.03;;;3.10;85.40;2.30;97726.00;;;;5138092;28;20232;-70
2021/12/06 04:41:18;;;;;;;4.00;2.77;;;3.20;85.50;2.30;97737.00;;;;5138151;28;20666;-70
2021/12/06 04:43:45;;;;;;;2.67;2.17;;;3.10;85.20;2.40;97746.00;;;;5138058;28;20295;-70
2021/12/06 04:46:13;;;;;;;2.57;2.43;;;3.10;85.50;2.40;97728.00;;;;5138068;28;20679;-70
2021/12/06 04:48:42;;;;;;;2.50;2.30;;;3.20;85.30;2.20;97754.00;;;;5119921;28;20252;-70
2021/12/06 04:51:10;;;;;;;1.03;1.03;;;3.10;84.90;2.20;97754.00;;;;5137863;28;20235;-70
2021/12/06 04:53:41;;;;;;;2.03;1.93;;;3.10;84.80;2.30;97759.00;;;;5138050;28;20236;-70
2021/12/06 04:56:15;;;;;;;1.40;1.30;;;3.10;85.00;2.30;97762.00;;;;5119891;28;20345;-70
2021/12/06 04:58:57;;;;;;;1.23;1.23;;;3.20;84.30;2.20;97767.00;;;;5119812;28;20519;-70
2021/12/06 05:01:30;;;;;;;2.37;2.17;;;3.10;84.10;2.30;97776.00;;;;5137810;28;20200;-70
2021/12/06 05:04:00;;;;;;;1.77;1.67;;;3.10;84.70;2.30;97769.00;;;;5119390;28;20307;-70
2021/12/06 05:06:32;;;;;;;0.80;0.80;;;3.10;84.80;2.20;97778.00;;;;5137657;28;20266;-71
2021/12/06 05:09:10;;;;;;;5.03;2.27;;;3.10;84.70;2.20;97770.00;;;;5137611;28;20234;-70
2021/12/06 05:11:42;;;;;;;4.03;2.53;;;3.10;85.90;2.00;97776.00;;;;5137586;28;20212;-70
2021/12/06 05:14:12;;;;;;;2.13;2.03;;;3.00;84.70;2.10;97780.00;;;;5119564;28;20634;-72
2021/12/06 05:16:39;;;;;;;2.47;2.30;;;3.00;85.40;2.10;97792.00;;;;5137575;28;20660;-70
2021/12/06 05:19:06;;;;;;;1.40;1.40;;;3.00;85.40;2.20;97799.00;;;;5137570;28;20206;-70
2021/12/06 05:21:36;;;;;;;2.00;1.90;;;3.10;85.50;2.20;97806.00;;;;5137336;28;20224;-70
2021/12/06 05:24:07;;;;;;;2.97;2.00;;;3.10;85.40;2.20;97813.00;;;;5137409;28;20198;-70
2021/12/06 05:26:37;;;;;;;2.63;2.43;;;3.00;85.00;2.00;97814.00;;;;5137322;28;20215;-70
2021/12/06 05:29:05;;;;;;;2.40;2.20;;;3.00;84.90;2.10;97815.00;;;;5137291;28;20667;-70
2021/12/06 05:31:35;;;;;;;1.43;1.43;;;3.10;85.30;2.10;97820.00;;;;5137413;28;20205;-70
2021/12/06 05:34:07;;;;;;;1.60;1.50;;;3.00;84.90;2.00;97817.00;;;;5137356;28;20293;-70
2021/12/06 05:36:34;;;;;;;2.93;1.73;;;3.00;85.20;2.10;97828.00;;;;5119253;28;20489;-70
2021/12/06 05:39:01;;;;;;;4.20;3.80;;;3.00;85.10;2.00;97827.00;;;;5136857;27;20275;-70
2021/12/06 05:41:29;;;;;;;2.57;2.37;;;3.00;85.10;2.00;97826.00;;;;5137109;28;20187;-70
2021/12/06 05:43:57;;;;;;;1.77;1.67;;;2.90;85.30;2.00;97834.00;;;;5136924;28;20234;-70
2021/12/06 05:46:24;;;;;;;3.73;2.57;;;3.00;86.30;2.10;97840.00;;;;5136836;28;20289;-70
2021/12/06 05:48:50;;;;;;;2.13;1.80;;;3.00;85.90;2.20;97851.00;;;;5136884;28;20222;-71
2021/12/06 05:51:20;;;;;;;3.13;2.90;;;3.00;85.90;2.30;97847.00;;;;5136907;28;20295;-70
2021/12/06 05:53:46;;;;;;;2.90;2.70;;;3.10;86.00;2.20;97849.00;;;;5136795;28;20235;-70
2021/12/06 05:56:13;;;;;;;2.80;2.53;;;3.20;85.70;2.30;97855.00;;;;5136896;28;20287;-71
2021/12/06 05:58:41;;;;;;;2.67;2.47;;;3.20;85.50;2.30;97853.00;;;;5136835;28;20327;-70
2021/12/06 06:01:08;;;;;;;7.57;2.63;;;3.20;85.50;2.40;97831.00;;;;5118804;28;20271;-70
2021/12/06 06:03:38;;;;;;;2.63;2.47;;;3.20;85.60;2.60;97859.00;;;;5136888;28;20532;-71
2021/12/06 06:06:04;;;;;;;2.03;1.93;;;3.30;86.10;2.30;97872.00;;;;5136706;28;20628;-70
2021/12/06 06:08:31;;;;;;;2.00;1.70;;;3.20;85.10;2.30;97868.00;;;;5118728;28;20526;-70
2021/12/06 06:10:57;;;;;;;2.50;2.30;;;3.20;84.90;2.30;97876.00;;;;5136638;28;20303;-70
2021/12/06 06:13:24;;;;;;;4.80;3.07;;;3.10;85.00;2.30;97879.00;;;;5136573;28;20211;-71
2021/12/06 06:15:51;;;;;;;2.03;1.93;;;3.20;85.10;2.30;97888.00;;;;5136839;28;20234;-70
2021/12/06 06:18:19;;;;;;;2.27;2.07;;;3.20;85.10;2.40;97888.00;;;;5136739;28;20196;-70
2021/12/06 06:20:49;;;;;;;3.17;2.63;;;3.20;85.40;2.40;97899.00;;;;5136610;28;20278;-70
2021/12/06 06:23:17;;;;;;;2.33;2.23;;;3.20;85.40;2.50;97907.00;;;;5136473;28;20224;-71
2021/12/06 06:25:44;;;;;;;3.63;3.33;;;3.30;86.40;2.60;97908.00;;;;5136481;28;20616;-70
2021/12/06 06:28:13;;;;;;;2.37;2.27;;;3.40;85.40;2.50;97899.00;;;;5136670;28;20302;-71
2021/12/06 06:30:41;;;;;;;2.50;2.30;;;3.30;85.00;2.50;97902.00;;;;5136687;28;20613;-71
2021/12/06 06:33:10;;;;;;;2.80;2.60;;;3.40;84.80;2.60;97902.00;;;;5118552;28;20213;-70
2021/12/06 06:35:37;;;;;;;2.17;2.07;;;3.40;85.00;2.60;97911.00;;;;5136304;28;20226;-70
2021/12/06 06:38:04;;;;;;;1.53;1.43;;;3.40;84.50;2.50;97902.00;;;;5136285;28;20276;-70
2021/12/06 06:40:34;;;;;;;4.27;1.90;;;3.40;84.20;2.60;97921.00;;;;5136433;28;20193;-70
2021/12/06 06:43:01;;;;;;;3.43;3.13;;;3.30;84.50;2.50;97917.00;;;;5136243;28;20211;-70
2021/12/06 06:45:27;;;;;;;3.57;2.53;;;3.30;84.50;2.50;97917.00;;;;5136171;28;20192;-70
2021/12/06 06:47:54;;;;;;;1.57;1.47;;;3.40;84.70;2.50;97927.00;;;;5135974;28;20384;-70
2021/12/06 06:50:23;;;;;;;3.03;2.73;;;3.30;84.90;2.50;97937.00;;;;5135107;27;20208;-70
2021/12/06 06:52:53;;;;;;;2.20;2.00;;;3.30;85.10;2.50;97938.00;;;;5135923;28;20517;-70
2021/12/06 06:55:22;;;;;;;3.33;3.03;;;3.30;85.50;2.40;97940.00;;;;5136034;28;20284;-70
2021/12/06 06:57:50;;;;;;;3.90;1.83;;;3.30;85.40;2.30;97944.00;;;;5117922;28;20216;-71
2021/12/06 07:00:21;;;;;;;1.83;1.73;;;3.20;85.20;2.40;97943.00;;;;5135915;28;20236;-70
2021/12/06 07:02:50;;;;;;;2.43;2.23;;;3.20;85.60;2.30;97950.00;;;;5117866;28;20200;-70
2021/12/06 07:05:18;;;;;;;1.77;1.67;;;3.30;85.60;2.30;97965.00;;;;5135767;28;20191;-71
2021/12/06 07:07:45;;;;;;;1.57;1.47;;;3.20;85.20;2.30;97962.00;;;;5135772;28;20304;-70
2021/12/06 07:10:12;;;;;;;2.60;2.13;;;3.20;85.50;2.40;97961.00;;;;5135800;28;20206;-71
2021/12/06 07:12:45;;;;;;;1.50;1.50;;;3.20;85.60;2.30;97962.00;;;;5135575;28;20588;-71
2021/12/06 07:15:18;;;;;;;4.20;2.53;;;3.30;85.70;2.40;97966.00;;;;5135646;28;20211;-70
2021/12/06 07:17:45;;;;;;;2.83;2.63;;;3.20;85.80;2.40;97973.00;;;;5135741;28;20252;-70
2021/12/06 07:20:14;;;;;;;1.43;1.33;;;3.20;85.60;2.40;97977.00;;;;5117581;28;20204;-70
2021/12/06 07:22:41;;;;;;;1.73;1.63;;;3.20;85.50;2.30;97985.00;;;;5135414;28;20631;-70
2021/12/06 07:25:10;;;;;;;8.23;3.27;;;3.20;85.60;2.60;97983.00;;;;5135579;28;20226;-71
2021/12/06 07:27:37;;;;;;;1.67;1.43;;;3.30;86.00;2.50;97984.00;;;;5135403;28;20236;-72
2021/12/06 07:30:10;;;;;;;2.67;2.47;;;3.30;85.40;2.50;97984.00;;;;5117443;28;20547;-70
2021/12/06 07:32:41;;;;;;;3.23;3.03;;;3.30;85.70;2.50;97989.00;;;;5135463;28;20275;-70
2021/12/06 07:35:09;;;;;;;3.33;2.53;;;3.30;85.60;2.60;97971.00;;;;5135407;28;20654;-70
2021/12/06 07:37:37;;;;;;;5.60;2.07;;;3.40;85.70;2.50;97999.00;;;;5135309;28;20636;-70
2021/12/06 07:40:08;;;;;;;1.70;1.63;;;3.40;85.30;2.50;97987.00;;;;5135406;28;20200;-71
2021/12/06 07:42:36;;;;;;;2.60;2.40;;;3.30;86.10;2.40;97992.00;;;;5135365;28;20220;-70
2021/12/06 07:45:05;;;;;;;3.77;2.73;;;3.30;86.30;2.50;98006.00;;;;5135342;28;20213;-74
2021/12/06 07:47:32;;;;;;;1.40;1.17;;;3.30;86.60;2.50;97997.00;;;;5135182;28;20332;-74
2021/12/06 07:49:58;;;;;;;3.67;3.43;;;3.30;86.70;2.60;97996.00;;;;5135155;28;20228;-75
2021/12/06 07:52:25;;;;;;;2.80;2.03;;;3.40;86.70;2.80;97998.00;;;;5117013;28;20701;-75
2021/12/06 07:54:53;;;;;;;2.87;2.57;;;3.50;86.70;2.70;98003.00;;;;5135205;28;20193;-74
2021/12/06 07:57:19;;;;;;;2.53;2.33;;;3.50;86.10;2.70;98001.00;;;;5116871;28;20221;-74
2021/12/06 07:59:47;;;;;;;2.80;1.97;;;3.60;85.60;2.70;98004.00;;;;5135112;28;20222;-73
2021/12/06 08:02:13;;;;;;;3.30;2.70;;;3.60;85.60;2.70;98006.00;;;;5135033;27;20227;-74
2021/12/06 08:04:40;;;;;;;1.87;1.77;;;3.50;85.90;2.80;98007.00;;;;5135082;28;20718;-73
2021/12/06 08:07:06;;;;;;;5.30;2.60;;;3.60;85.80;2.80;98021.00;;;;5134856;28;20258;-74
2021/12/06 08:09:33;;;;;;;2.93;2.73;;;3.60;85.10;2.70;98010.00;;;;5117070;28;20482;-74
2021/12/06 08:12:02;;;;;;;4.67;4.27;;;3.60;84.90;2.80;98012.00;;;;5134901;28;20211;-74
2021/12/06 08:14:29;;;;;;;1.90;1.80;;;3.60;85.20;2.80;98007.00;;;;5134773;28;20626;-74
2021/12/06 08:16:56;;;;;;;6.60;3.27;;;3.60;85.30;2.70;98010.00;;;;5117053;28;20300;-73
2021/12/06 08:19:22;;;;;;;1.37;1.33;;;3.60;85.10;2.60;98018.00;;;;5134732;28;20676;-73
2021/12/06 08:21:49;;;;;;;5.03;3.20;;;3.50;85.30;2.70;98016.00;;;;5134857;28;20264;-74
2021/12/06 08:24:16;;;;;;;2.43;2.23;;;3.60;85.90;2.80;98028.00;;;;5135024;28;20192;-73
2021/12/06 08:26:44;;;;;;;6.87;3.50;;;3.60;85.40;2.90;98022.00;;;;5134801;28;20240;-73
2021/12/06 08:29:13;;;;;;;2.67;2.47;;;3.70;85.60;3.00;98021.00;;;;5134776;28;20193;-73
2021/12/06 08:31:43;;;;;;;3.33;2.97;;;3.80;85.90;2.90;98027.00;;;;5116708;28;20211;-73
2021/12/06 08:34:10;;;;;;;3.70;3.37;;;3.70;84.90;3.10;98022.00;;;;5134573;28;20200;-73
2021/12/06 08:36:37;;;;;;;2.87;2.67;;;3.80;85.00;3.00;98034.00;;;;5116478;28;20300;-74
2021/12/06 08:39:05;;;;;;;2.93;2.63;;;3.80;84.80;3.10;98037.00;;;;5116419;28;20499;-74
2021/12/06 08:41:32;;;;;;;16.33;3.40;;;3.90;85.10;3.00;98031.00;;;;5134359;28;20263;-73
2021/12/06 08:44:01;;;;;;;2.70;2.50;;;3.90;84.40;3.10;98033.00;;;;5134495;28;20492;-73
2021/12/06 08:46:32;;;;;;;5.07;2.53;;;3.80;84.70;3.20;98045.00;;;;5134278;28;20223;-73
2021/12/06 08:49:00;;;;;;;4.40;2.53;;;4.00;84.50;3.20;98044.00;;;;5134554;28;20279;-73
2021/12/06 08:51:32;;;;;;;2.00;1.90;;;4.00;84.40;3.20;98038.00;;;;5134392;28;20323;-73
2021/12/06 08:54:03;;;;;;;2.43;2.23;;;4.10;84.40;3.40;98039.00;;;;5134463;28;20296;-73
2021/12/06 08:56:31;;;;;;;1.70;1.60;;;4.10;84.70;3.40;98027.00;;;;5116133;28;20206;-72
2021/12/06 08:58:58;;;;;;;1.67;1.63;;;4.20;84.50;3.40;98041.00;;;;5134367;28;20229;-73
2021/12/06 09:01:26;;;;;;;1.43;1.43;;;4.20;83.40;3.50;98056.00;;;;5116255;28;20193;-72
2021/12/06 09:03:53;;;;;;;2.23;2.10;;;4.20;83.90;3.50;98046.00;;;;5134212;28;20231;-72
2021/12/06 09:06:21;;;;;;;2.47;2.27;;;4.20;83.20;3.50;98054.00;;;;5134215;28;20213;-72
2021/12/06 09:08:50;;;;;;;1.60;1.50;;;4.20;83.40;3.60;98029.00;;;;5134078;28;20232;-72
2021/12/06 09:11:17;;;;;;;1.67;1.57;;;4.30;82.10;3.40;98060.00;;;;5134285;28;20234;-72
2021/12/06 09:13:44;;;;;;;4.60;2.87;;;4.20;82.20;3.50;98045.00;;;;5116881;28;20233;-72
2021/12/06 09:16:13;;;;;;;1.77;1.67;;;4.30;82.50;3.50;98055.00;;;;5137663;28;20543;-72
2021/12/06 09:18:42;;;;;;;2.50;2.30;;;4.30;82.50;3.70;98057.00;;;;5137497;28;20258;-71
2021/12/06 09:21:13;;;;;;;3.00;1.67;;;4.40;82.30;3.70;98054.00;;;;5137605;28;20220;-73
2021/12/06 09:23:41;;;;;;;3.00;2.47;;;4.50;81.50;3.70;98066.00;;;;5137566;28;20309;-73
2021/12/06 09:26:08;;;;;;;2.60;2.50;;;4.50;81.90;3.60;98060.00;;;;5137472;28;20384;-74
2021/12/06 09:28:38;;;;;;;2.30;2.10;;;4.40;81.40;3.60;98063.00;;;;5137478;28;20307;-73
2021/12/06 09:31:06;;;;;;;3.70;2.43;;;4.40;81.80;3.40;98066.00;;;;5137455;28;20220;-73
2021/12/06 09:33:35;;;;;;;2.40;2.20;;;4.30;82.50;3.50;98068.00;;;;5137357;28;20260;-73
2021/12/06 09:36:04;;;;;;;1.83;1.73;;;4.30;82.30;3.60;98074.00;;;;5137413;28;20212;-72
2021/12/06 09:38:38;;;;;;;3.17;2.73;;;4.30;82.00;3.50;98075.00;;;;5137384;28;20253;-71
2021/12/06 09:41:10;;;;;;;1.93;1.83;;;4.30;81.70;3.60;98071.00;;;;5137174;28;20298;-72
2021/12/06 09:43:39;;;;;;;2.63;2.23;;;4.30;81.70;3.70;98070.00;;;;5119284;28;20642;-74
2021/12/06 09:46:08;;;;;;;10.93;2.10;;;4.40;81.40;3.70;98068.00;;;;5137245;28;20303;-73
2021/12/06 09:48:42;;;;;;;5.30;1.57;;;4.50;80.60;3.60;98083.00;;;;5137132;28;20308;-73
2021/12/06 09:51:13;;;;;;;3.10;1.83;;;4.40;81.50;3.90;98090.00;;;;5137151;28;20235;-73
2021/12/06 09:53:43;;;;;;;1.20;1.20;;;4.60;81.40;3.90;98087.00;;;;5137185;28;20232;-74
2021/12/06 09:56:18;;;;;;;1.53;1.43;;;4.60;80.80;3.90;98084.00;;;;5136954;28;20285;-72
2021/12/06 09:58:45;;;;;;;2.10;2.00;;;4.60;80.10;3.90;98085.00;;;;5137014;28;20200;-73
2021/12/06 10:01:19;;;;;;;2.83;2.03;;;4.70;79.70;3.90;98091.00;;;;5137052;28;20302;-73
2021/12/06 10:03:47;;;;;;;2.13;2.03;;;4.70;80.50;3.70;98082.00;;;;5136943;28;20220;-71
2021/12/06 10:06:16;;;;;;;1.93;1.83;;;4.60;79.70;3.90;98078.00;;;;5136850;28;20635;-72
2021/12/06 10:08:45;;;;;;;1.87;1.77;;;4.60;79.90;4.10;98071.00;;;;5136754;28;20272;-73
2021/12/06 10:11:16;;;;;;;2.00;1.23;;;4.70;79.60;4.00;98065.00;;;;5136815;28;20281;-72
2021/12/06 10:13:49;;;;;;;1.43;1.33;;;4.80;78.70;4.30;98066.00;;;;5118658;28;20675;-74
2021/12/06 10:16:16;;;;;;;1.80;1.70;;;4.90;78.90;4.40;98065.00;;;;5136771;28;20687;-72
2021/12/06 10:18:43;;;;;;;2.67;2.47;;;5.00;78.40;4.50;98052.00;;;;5136771;28;20217;-73
2021/12/06 10:21:10;;;;;;;1.77;1.67;;;5.10;78.20;4.50;98053.00;;;;5136943;28;20296;-73
2021/12/06 10:23:38;;;;;;;2.40;2.20;;;5.20;77.40;4.70;98034.00;;;;5136808;28;20220;-72
2021/12/06 10:26:07;;;;;;;3.07;2.60;;;5.30;77.40;4.80;98030.00;;;;5136570;27;20226;-73
2021/12/06 10:28:35;;;;;;;0.97;0.97;;;5.40;76.90;4.90;98030.00;;;;5136755;28;20232;-73
2021/12/06 10:31:06;;;;;;;2.60;2.40;;;5.50;76.30;5.00;98031.00;;;;5136551;28;20217;-72
2021/12/06 10:33:37;;;;;;;1.27;1.27;;;5.60;75.40;4.90;98031.00;;;;5136456;28;20689;-72
2021/12/06 10:36:08;;;;;;;1.37;1.37;;;5.60;72.60;4.90;98035.00;;;;5118430;28;20267;-72
2021/12/06 10:38:38;;;;;;;1.83;1.73;;;5.60;73.50;4.80;98022.00;;;;5136422;28;20544;-73
2021/12/06 10:41:15;;;;;;;0.87;0.87;;;5.60;72.70;4.80;97998.00;;;;5136160;28;20229;-73
2021/12/06 10:43:53;;;;;;;1.13;1.13;;;5.60;72.90;4.80;98021.00;;;;5118185;28;20221;-72
2021/12/06 10:46:22;;;;;;;0.77;0.77;;;5.60;73.20;4.90;98025.00;;;;5118103;28;20667;-72
2021/12/06 10:48:54;;;;;;;1.00;1.00;;;5.70;73.40;5.00;98033.00;;;;5136230;28;20221;-73
2021/12/06 10:51:23;;;;;;;1.63;1.53;;;5.70;73.40;5.00;98026.00;;;;5136044;28;20221;-73
2021/12/06 10:53:59;;;;;;;0.90;0.90;;;5.70;73.30;4.70;98021.00;;;;5136173;28;20201;-73
2021/12/06 10:56:37;;;;;;;1.13;1.13;;;5.50;72.40;5.00;98036.00;;;;5118053;28;20194;-71
2021/12/06 10:59:12;;;;;;;1.00;1.00;;;5.60;72.90;5.00;98040.00;;;;5136019;28;20208;-73
2021/12/06 11:01:38;;;;;;;1.50;1.40;;;5.70;72.20;5.00;98027.00;;;;5118025;28;20699;-72
2021/12/06 11:04:08;;;;;;;1.47;1.33;;;5.70;72.50;5.00;98034.00;;;;5136133;28;20182;-73
2021/12/06 11:06:42;;;;;;;1.20;1.20;;;5.70;71.60;4.90;98037.00;;;;5135848;28;20221;-71
2021/12/06 11:09:12;;;;;;;1.17;1.17;;;5.60;72.10;5.00;98037.00;;;;5135850;28;20224;-71
2021/12/06 11:11:44;;;;;;;1.03;1.03;;;5.80;72.40;5.10;98014.00;;;;5135789;28;20218;-72
2021/12/06 11:14:15;;;;;;;0.83;0.83;;;5.70;72.20;4.90;98028.00;;;;5135948;28;20224;-71
2021/12/06 11:16:44;;;;;;;0.80;0.80;;;5.70;72.70;5.00;98029.00;;;;5135811;28;20225;-71
2021/12/06 11:19:14;;;;;;;1.40;1.37;;;5.70;72.30;4.90;98025.00;;;;5135832;28;20216;-71
2021/12/06 11:21:44;;;;;;;1.30;1.07;;;5.70;71.70;4.90;98014.00;;;;5135623;28;20284;-72
2021/12/06 11:24:20;;;;;;;0.87;0.87;;;5.70;70.80;5.00;98006.00;;;;5135701;28;20669;-72
2021/12/06 11:26:56;;;;;;;1.77;1.67;;;5.80;71.30;4.90;98017.00;;;;5117446;28;20225;-73
2021/12/06 11:29:28;;;;;;;2.40;1.30;;;5.70;70.50;4.90;98012.00;;;;5135674;28;20269;-73